This is the latest recevied weather packets stored in our database for station/object IZ1UKX-13. If no packets are shown the sender has not sent any weather packets the latest 10 day(s).
| Time | Temp. | Humidity | Pressure | Rain* | Wind** | Luminosity | Snow |
|---|---|---|---|---|---|---|---|
| 1777554674 | 19.44° C | 55% | 1023.2 hPa | 0 mm | - | 0 W/m² | - |
| 1777554375 | 20° C | 55% | 1023.2 hPa | 0 mm | - | 0 W/m² | - |
| 1777554075 | 20° C | 54% | 1023.2 hPa | 0 mm | - | 0 W/m² | - |
| 1777553774 | 20.56° C | 53% | 1022.7 hPa | 0 mm | - | 0 W/m² | - |
| 1777553475 | 20.56° C | 54% | 1022.7 hPa | 0 mm | - | 0 W/m² | - |
| 1777553174 | 20° C | 55% | 1023.2 hPa | 0 mm | - | 0 W/m² | - |
| 1777552875 | 18.89° C | 57% | 1023.2 hPa | 0 mm | - | 0 W/m² | - |
| 1777552575 | 18.89° C | 58% | 1023.2 hPa | 0 mm | - | 0 W/m² | - |
| 1777552274 | 19.44° C | 56% | 1023.2 hPa | 0 mm | - | 0 W/m² | - |
| 1777551975 | 20° C | 55% | 1023.2 hPa | 0 mm | - | 0 W/m² | - |
| 1777551675 | 20.56° C | 54% | 1022.7 hPa | 0 mm | - | 0 W/m² | - |
| 1777551374 | 21.11° C | 55% | 1022.7 hPa | 0 mm | - | 0 W/m² | - |
| 1777551074 | 20.56° C | 55% | 1022.7 hPa | 0 mm | - | 0 W/m² | - |
| 1777550775 | 20.56° C | 54% | 1023.2 hPa | 0 mm | - | 0 W/m² | - |
| 1777550474 | 21.11° C | 53% | 1022.7 hPa | 0 mm | - | 0 W/m² | - |
| 1777550174 | 21.11° C | 53% | 1022.7 hPa | 0 mm | - | 0 W/m² | - |
| 1777549874 | 20.56° C | 57% | 1022.7 hPa | 0 mm | - | 0 W/m² | - |
| 1777549574 | 20.56° C | 56% | 1023.2 hPa | 0 mm | - | 0 W/m² | - |
| 1777549275 | 20° C | 56% | 1023.2 hPa | 0 mm | - | 0 W/m² | - |
| 1777548974 | 20° C | 56% | 1023.2 hPa | 0 mm | - | 0 W/m² | - |
| 1777548674 | 20° C | 56% | 1023.2 hPa | 0 mm | - | 0 W/m² | - |
| 1777548374 | 20° C | 56% | 1023.2 hPa | 0 mm | - | 0 W/m² | - |
| 1777548075 | 19.44° C | 58% | 1023.2 hPa | 0 mm | - | 0 W/m² | - |
| 1777547774 | 19.44° C | 58% | 1023.2 hPa | 0 mm | - | 0 W/m² | - |
| 1777547475 | 20° C | 58% | 1023.2 hPa | 0 mm | - | 0 W/m² | - |
* Rain latest hour (hover to see other rain measurements)
** Current wind speed in m/s (hover to see current wind gust speed)